sensor_id;sensor_type;location;lat;lon;timestamp;P1;durP1;ratioP1;P2;durP2;ratioP2
68188;SDS011;66299;47.514;19.218;2024-02-15T00:02:09;51.72;;;29.63;;
68188;SDS011;66299;47.514;19.218;2024-02-15T00:04:37;53.97;;;28.83;;
68188;SDS011;66299;47.514;19.218;2024-02-15T00:07:06;52.13;;;29.05;;
68188;SDS011;66299;47.514;19.218;2024-02-15T00:09:38;48.50;;;29.02;;
68188;SDS011;66299;47.514;19.218;2024-02-15T00:12:07;51.17;;;29.52;;
68188;SDS011;66299;47.514;19.218;2024-02-15T00:14:36;50.15;;;28.50;;
68188;SDS011;66299;47.514;19.218;2024-02-15T00:17:05;47.22;;;27.35;;
68188;SDS011;66299;47.514;19.218;2024-02-15T00:19:34;52.63;;;29.40;;
68188;SDS011;66299;47.514;19.218;2024-02-15T00:22:05;47.53;;;27.33;;
68188;SDS011;66299;47.514;19.218;2024-02-15T00:24:37;49.00;;;27.27;;
68188;SDS011;66299;47.514;19.218;2024-02-15T00:29:35;45.20;;;25.70;;
68188;SDS011;66299;47.514;19.218;2024-02-15T00:32:04;43.67;;;26.13;;
68188;SDS011;66299;47.514;19.218;2024-02-15T00:34:33;41.20;;;25.27;;
68188;SDS011;66299;47.514;19.218;2024-02-15T00:37:02;44.20;;;26.30;;
68188;SDS011;66299;47.514;19.218;2024-02-15T00:39:32;40.28;;;25.35;;
68188;SDS011;66299;47.514;19.218;2024-02-15T00:42:02;42.58;;;26.45;;
68188;SDS011;66299;47.514;19.218;2024-02-15T00:44:33;44.28;;;25.83;;
68188;SDS011;66299;47.514;19.218;2024-02-15T00:47:01;49.00;;;27.00;;
68188;SDS011;66299;47.514;19.218;2024-02-15T00:49:29;48.78;;;28.73;;
68188;SDS011;66299;47.514;19.218;2024-02-15T00:52:00;47.08;;;27.10;;
68188;SDS011;66299;47.514;19.218;2024-02-15T00:54:29;45.25;;;27.63;;
68188;SDS011;66299;47.514;19.218;2024-02-15T00:56:57;53.92;;;30.10;;
68188;SDS011;66299;47.514;19.218;2024-02-15T00:59:28;55.78;;;30.25;;
68188;SDS011;66299;47.514;19.218;2024-02-15T01:01:57;52.17;;;29.77;;
68188;SDS011;66299;47.514;19.218;2024-02-15T01:04:27;57.95;;;31.52;;
68188;SDS011;66299;47.514;19.218;2024-02-15T01:06:56;55.15;;;31.67;;
68188;SDS011;66299;47.514;19.218;2024-02-15T01:09:25;55.17;;;30.88;;
68188;SDS011;66299;47.514;19.218;2024-02-15T01:11:53;56.97;;;30.80;;
68188;SDS011;66299;47.514;19.218;2024-02-15T01:14:22;55.50;;;30.15;;
68188;SDS011;66299;47.514;19.218;2024-02-15T01:16:52;55.88;;;31.00;;
68188;SDS011;66299;47.514;19.218;2024-02-15T01:19:22;54.58;;;30.13;;
68188;SDS011;66299;47.514;19.218;2024-02-15T01:21:50;48.40;;;28.83;;
68188;SDS011;66299;47.514;19.218;2024-02-15T01:24:20;50.60;;;29.00;;
68188;SDS011;66299;47.514;19.218;2024-02-15T01:26:50;50.63;;;29.10;;
68188;SDS011;66299;47.514;19.218;2024-02-15T01:29:18;48.13;;;28.92;;
68188;SDS011;66299;47.514;19.218;2024-02-15T01:31:47;55.35;;;30.08;;
68188;SDS011;66299;47.514;19.218;2024-02-15T01:34:18;58.15;;;29.83;;
68188;SDS011;66299;47.514;19.218;2024-02-15T01:36:49;54.70;;;30.15;;
68188;SDS011;66299;47.514;19.218;2024-02-15T01:39:18;50.83;;;29.48;;
68188;SDS011;66299;47.514;19.218;2024-02-15T01:41:47;49.35;;;29.10;;
68188;SDS011;66299;47.514;19.218;2024-02-15T01:44:17;52.40;;;29.88;;
68188;SDS011;66299;47.514;19.218;2024-02-15T01:46:47;55.45;;;28.75;;
68188;SDS011;66299;47.514;19.218;2024-02-15T01:49:20;52.67;;;28.92;;
68188;SDS011;66299;47.514;19.218;2024-02-15T01:51:50;51.92;;;28.67;;
68188;SDS011;66299;47.514;19.218;2024-02-15T01:54:20;50.10;;;28.48;;
68188;SDS011;66299;47.514;19.218;2024-02-15T01:56:48;48.95;;;27.67;;
68188;SDS011;66299;47.514;19.218;2024-02-15T01:59:17;54.47;;;28.10;;
68188;SDS011;66299;47.514;19.218;2024-02-15T02:01:47;45.33;;;27.40;;
68188;SDS011;66299;47.514;19.218;2024-02-15T02:04:17;49.45;;;27.83;;
68188;SDS011;66299;47.514;19.218;2024-02-15T02:06:47;47.28;;;27.38;;
68188;SDS011;66299;47.514;19.218;2024-02-15T02:09:15;48.38;;;27.92;;
68188;SDS011;66299;47.514;19.218;2024-02-15T02:11:45;50.67;;;28.02;;
68188;SDS011;66299;47.514;19.218;2024-02-15T02:14:15;48.58;;;27.60;;
68188;SDS011;66299;47.514;19.218;2024-02-15T02:16:47;46.80;;;27.67;;
68188;SDS011;66299;47.514;19.218;2024-02-15T02:19:17;49.20;;;28.02;;
68188;SDS011;66299;47.514;19.218;2024-02-15T02:21:48;47.00;;;28.38;;
68188;SDS011;66299;47.514;19.218;2024-02-15T02:26:51;45.13;;;27.20;;
68188;SDS011;66299;47.514;19.218;2024-02-15T02:29:22;48.10;;;28.73;;
68188;SDS011;66299;47.514;19.218;2024-02-15T02:31:50;47.13;;;28.65;;
68188;SDS011;66299;47.514;19.218;2024-02-15T02:34:19;52.30;;;28.55;;
68188;SDS011;66299;47.514;19.218;2024-02-15T02:36:50;50.00;;;28.73;;
68188;SDS011;66299;47.514;19.218;2024-02-15T02:39:18;49.33;;;29.10;;
68188;SDS011;66299;47.514;19.218;2024-02-15T02:41:50;46.50;;;29.17;;
68188;SDS011;66299;47.514;19.218;2024-02-15T02:44:22;51.17;;;29.60;;
68188;SDS011;66299;47.514;19.218;2024-02-15T02:46:52;47.90;;;28.90;;
68188;SDS011;66299;47.514;19.218;2024-02-15T02:49:21;50.95;;;29.98;;
68188;SDS011;66299;47.514;19.218;2024-02-15T02:51:50;45.63;;;28.27;;
68188;SDS011;66299;47.514;19.218;2024-02-15T02:54:19;49.90;;;29.10;;
68188;SDS011;66299;47.514;19.218;2024-02-15T02:56:49;50.22;;;28.90;;
68188;SDS011;66299;47.514;19.218;2024-02-15T02:59:19;46.83;;;29.05;;
68188;SDS011;66299;47.514;19.218;2024-02-15T03:01:48;47.70;;;28.45;;
68188;SDS011;66299;47.514;19.218;2024-02-15T03:04:16;46.47;;;27.27;;
68188;SDS011;66299;47.514;19.218;2024-02-15T03:06:46;49.47;;;27.63;;
68188;SDS011;66299;47.514;19.218;2024-02-15T03:09:15;48.80;;;27.75;;
68188;SDS011;66299;47.514;19.218;2024-02-15T03:11:45;43.80;;;26.77;;
68188;SDS011;66299;47.514;19.218;2024-02-15T03:14:15;49.55;;;27.02;;
68188;SDS011;66299;47.514;19.218;2024-02-15T03:16:45;45.58;;;26.88;;
68188;SDS011;66299;47.514;19.218;2024-02-15T03:19:14;45.42;;;26.75;;
68188;SDS011;66299;47.514;19.218;2024-02-15T03:21:43;41.58;;;26.45;;
68188;SDS011;66299;47.514;19.218;2024-02-15T03:24:14;44.28;;;26.55;;
68188;SDS011;66299;47.514;19.218;2024-02-15T03:26:42;45.35;;;26.58;;
68188;SDS011;66299;47.514;19.218;2024-02-15T03:29:11;46.28;;;26.48;;
68188;SDS011;66299;47.514;19.218;2024-02-15T03:31:39;46.03;;;27.05;;
68188;SDS011;66299;47.514;19.218;2024-02-15T03:34:09;44.70;;;26.10;;
68188;SDS011;66299;47.514;19.218;2024-02-15T03:39:08;45.40;;;26.65;;
68188;SDS011;66299;47.514;19.218;2024-02-15T03:41:37;46.60;;;27.88;;
68188;SDS011;66299;47.514;19.218;2024-02-15T03:44:05;49.80;;;28.40;;
68188;SDS011;66299;47.514;19.218;2024-02-15T03:46:33;46.40;;;27.65;;
68188;SDS011;66299;47.514;19.218;2024-02-15T03:49:03;45.35;;;27.35;;
68188;SDS011;66299;47.514;19.218;2024-02-15T03:51:34;44.92;;;27.70;;
68188;SDS011;66299;47.514;19.218;2024-02-15T03:54:03;45.60;;;27.42;;
68188;SDS011;66299;47.514;19.218;2024-02-15T03:56:31;45.47;;;27.10;;
68188;SDS011;66299;47.514;19.218;2024-02-15T03:59:00;42.35;;;27.25;;
68188;SDS011;66299;47.514;19.218;2024-02-15T04:01:32;42.63;;;26.48;;
68188;SDS011;66299;47.514;19.218;2024-02-15T04:04:03;44.85;;;26.95;;
68188;SDS011;66299;47.514;19.218;2024-02-15T04:06:32;44.92;;;26.02;;
68188;SDS011;66299;47.514;19.218;2024-02-15T04:09:02;46.38;;;26.85;;
68188;SDS011;66299;47.514;19.218;2024-02-15T04:11:32;46.95;;;27.13;;
68188;SDS011;66299;47.514;19.218;2024-02-15T04:14:02;40.80;;;26.42;;
68188;SDS011;66299;47.514;19.218;2024-02-15T04:16:30;47.08;;;26.40;;
68188;SDS011;66299;47.514;19.218;2024-02-15T04:19:04;44.55;;;26.67;;
68188;SDS011;66299;47.514;19.218;2024-02-15T04:21:33;42.28;;;25.85;;
68188;SDS011;66299;47.514;19.218;2024-02-15T04:24:04;43.25;;;25.98;;
68188;SDS011;66299;47.514;19.218;2024-02-15T04:26:33;47.25;;;26.75;;
68188;SDS011;66299;47.514;19.218;2024-02-15T04:29:02;42.50;;;26.08;;
68188;SDS011;66299;47.514;19.218;2024-02-15T04:31:35;44.55;;;26.00;;
68188;SDS011;66299;47.514;19.218;2024-02-15T04:34:06;44.13;;;26.33;;
68188;SDS011;66299;47.514;19.218;2024-02-15T04:36:35;45.45;;;26.52;;
68188;SDS011;66299;47.514;19.218;2024-02-15T04:39:05;43.90;;;26.15;;
68188;SDS011;66299;47.514;19.218;2024-02-15T04:41:36;49.05;;;26.90;;
68188;SDS011;66299;47.514;19.218;2024-02-15T04:44:05;42.55;;;26.25;;
68188;SDS011;66299;47.514;19.218;2024-02-15T04:46:39;43.60;;;26.88;;
68188;SDS011;66299;47.514;19.218;2024-02-15T04:49:08;47.58;;;27.05;;
68188;SDS011;66299;47.514;19.218;2024-02-15T04:51:37;48.25;;;27.23;;
68188;SDS011;66299;47.514;19.218;2024-02-15T04:54:11;49.47;;;27.15;;
68188;SDS011;66299;47.514;19.218;2024-02-15T04:56:40;47.55;;;29.30;;
68188;SDS011;66299;47.514;19.218;2024-02-15T04:59:08;51.13;;;29.73;;
68188;SDS011;66299;47.514;19.218;2024-02-15T05:01:38;49.38;;;29.25;;
68188;SDS011;66299;47.514;19.218;2024-02-15T05:04:09;50.95;;;29.50;;
68188;SDS011;66299;47.514;19.218;2024-02-15T05:06:38;50.58;;;29.45;;
68188;SDS011;66299;47.514;19.218;2024-02-15T05:09:07;48.47;;;29.02;;
68188;SDS011;66299;47.514;19.218;2024-02-15T05:11:39;49.78;;;29.50;;
68188;SDS011;66299;47.514;19.218;2024-02-15T05:14:12;49.00;;;28.35;;
68188;SDS011;66299;47.514;19.218;2024-02-15T05:16:46;49.65;;;28.00;;
68188;SDS011;66299;47.514;19.218;2024-02-15T05:19:16;44.10;;;27.52;;
68188;SDS011;66299;47.514;19.218;2024-02-15T05:21:45;49.30;;;28.98;;
68188;SDS011;66299;47.514;19.218;2024-02-15T05:24:14;46.45;;;27.80;;
68188;SDS011;66299;47.514;19.218;2024-02-15T05:26:45;50.28;;;29.20;;
68188;SDS011;66299;47.514;19.218;2024-02-15T05:29:15;48.28;;;28.73;;
68188;SDS011;66299;47.514;19.218;2024-02-15T05:31:44;45.20;;;26.70;;
68188;SDS011;66299;47.514;19.218;2024-02-15T05:34:13;49.65;;;28.05;;
68188;SDS011;66299;47.514;19.218;2024-02-15T05:36:42;52.20;;;30.30;;
68188;SDS011;66299;47.514;19.218;2024-02-15T05:39:10;55.13;;;29.10;;
68188;SDS011;66299;47.514;19.218;2024-02-15T05:41:41;57.88;;;32.22;;
68188;SDS011;66299;47.514;19.218;2024-02-15T05:44:11;54.90;;;32.30;;
68188;SDS011;66299;47.514;19.218;2024-02-15T05:49:11;53.08;;;30.67;;
68188;SDS011;66299;47.514;19.218;2024-02-15T05:51:44;57.30;;;32.05;;
68188;SDS011;66299;47.514;19.218;2024-02-15T05:54:14;44.13;;;28.42;;
68188;SDS011;66299;47.514;19.218;2024-02-15T05:56:45;43.63;;;26.30;;
68188;SDS011;66299;47.514;19.218;2024-02-15T05:59:20;50.67;;;28.13;;
68188;SDS011;66299;47.514;19.218;2024-02-15T06:01:49;43.78;;;26.15;;
68188;SDS011;66299;47.514;19.218;2024-02-15T06:04:18;43.22;;;26.00;;
68188;SDS011;66299;47.514;19.218;2024-02-15T06:06:49;46.65;;;26.00;;
68188;SDS011;66299;47.514;19.218;2024-02-15T06:09:20;45.05;;;26.23;;
68188;SDS011;66299;47.514;19.218;2024-02-15T06:11:52;46.60;;;26.07;;
68188;SDS011;66299;47.514;19.218;2024-02-15T06:14:25;42.38;;;25.50;;
68188;SDS011;66299;47.514;19.218;2024-02-15T06:16:54;44.00;;;26.45;;
68188;SDS011;66299;47.514;19.218;2024-02-15T06:19:25;48.95;;;26.33;;
68188;SDS011;66299;47.514;19.218;2024-02-15T06:21:53;44.22;;;25.98;;
68188;SDS011;66299;47.514;19.218;2024-02-15T06:24:22;47.72;;;26.27;;
68188;SDS011;66299;47.514;19.218;2024-02-15T06:26:55;41.83;;;25.13;;
68188;SDS011;66299;47.514;19.218;2024-02-15T06:29:28;44.70;;;25.45;;
68188;SDS011;66299;47.514;19.218;2024-02-15T06:35:16;47.10;;;27.27;;
68188;SDS011;66299;47.514;19.218;2024-02-15T06:38:02;45.70;;;27.27;;
68188;SDS011;66299;47.514;19.218;2024-02-15T06:40:48;48.50;;;27.65;;
68188;SDS011;66299;47.514;19.218;2024-02-15T06:43:21;46.38;;;27.30;;
68188;SDS011;66299;47.514;19.218;2024-02-15T06:45:52;46.92;;;27.67;;
68188;SDS011;66299;47.514;19.218;2024-02-15T06:50:54;45.28;;;28.10;;
68188;SDS011;66299;47.514;19.218;2024-02-15T06:53:24;46.58;;;26.65;;
68188;SDS011;66299;47.514;19.218;2024-02-15T06:55:54;49.80;;;26.92;;
68188;SDS011;66299;47.514;19.218;2024-02-15T06:58:27;58.83;;;32.28;;
68188;SDS011;66299;47.514;19.218;2024-02-15T07:01:00;55.85;;;31.88;;
68188;SDS011;66299;47.514;19.218;2024-02-15T07:03:29;48.33;;;30.05;;
68188;SDS011;66299;47.514;19.218;2024-02-15T07:05:59;49.08;;;29.52;;
68188;SDS011;66299;47.514;19.218;2024-02-15T07:08:30;50.97;;;29.55;;
68188;SDS011;66299;47.514;19.218;2024-02-15T07:10:59;49.55;;;28.50;;
68188;SDS011;66299;47.514;19.218;2024-02-15T07:13:29;43.85;;;27.48;;
68188;SDS011;66299;47.514;19.218;2024-02-15T07:16:00;48.45;;;26.38;;
68188;SDS011;66299;47.514;19.218;2024-02-15T07:18:31;48.70;;;27.17;;
68188;SDS011;66299;47.514;19.218;2024-02-15T07:21:00;45.08;;;27.25;;
68188;SDS011;66299;47.514;19.218;2024-02-15T07:23:31;46.08;;;27.27;;
68188;SDS011;66299;47.514;19.218;2024-02-15T07:26:02;47.97;;;27.50;;
68188;SDS011;66299;47.514;19.218;2024-02-15T07:28:32;48.78;;;26.52;;
68188;SDS011;66299;47.514;19.218;2024-02-15T07:31:03;54.00;;;29.65;;
68188;SDS011;66299;47.514;19.218;2024-02-15T07:33:32;61.35;;;30.58;;
68188;SDS011;66299;47.514;19.218;2024-02-15T07:36:02;60.03;;;30.52;;
68188;SDS011;66299;47.514;19.218;2024-02-15T07:38:32;68.65;;;32.45;;
68188;SDS011;66299;47.514;19.218;2024-02-15T07:41:02;126.15;;;42.08;;
68188;SDS011;66299;47.514;19.218;2024-02-15T07:43:33;94.97;;;36.67;;
68188;SDS011;66299;47.514;19.218;2024-02-15T07:46:02;65.97;;;30.27;;
68188;SDS011;66299;47.514;19.218;2024-02-15T07:48:32;44.22;;;26.40;;
68188;SDS011;66299;47.514;19.218;2024-02-15T07:51:01;52.28;;;27.70;;
68188;SDS011;66299;47.514;19.218;2024-02-15T07:53:31;45.40;;;25.10;;
68188;SDS011;66299;47.514;19.218;2024-02-15T07:56:03;47.90;;;25.15;;
68188;SDS011;66299;47.514;19.218;2024-02-15T07:58:33;46.42;;;24.48;;
68188;SDS011;66299;47.514;19.218;2024-02-15T08:01:10;45.00;;;24.10;;
68188;SDS011;66299;47.514;19.218;2024-02-15T08:03:39;42.58;;;24.48;;
68188;SDS011;66299;47.514;19.218;2024-02-15T08:06:11;48.95;;;24.35;;
68188;SDS011;66299;47.514;19.218;2024-02-15T08:08:41;42.20;;;23.23;;
68188;SDS011;66299;47.514;19.218;2024-02-15T08:11:13;46.22;;;23.52;;
68188;SDS011;66299;47.514;19.218;2024-02-15T08:13:43;40.50;;;22.75;;
68188;SDS011;66299;47.514;19.218;2024-02-15T08:16:18;41.67;;;22.38;;
68188;SDS011;66299;47.514;19.218;2024-02-15T08:18:48;39.13;;;22.83;;
68188;SDS011;66299;47.514;19.218;2024-02-15T08:21:24;38.58;;;21.52;;
68188;SDS011;66299;47.514;19.218;2024-02-15T08:23:54;40.42;;;22.92;;
68188;SDS011;66299;47.514;19.218;2024-02-15T08:26:23;41.92;;;22.08;;
68188;SDS011;66299;47.514;19.218;2024-02-15T08:28:51;41.65;;;21.35;;
68188;SDS011;66299;47.514;19.218;2024-02-15T08:31:25;39.85;;;22.60;;
68188;SDS011;66299;47.514;19.218;2024-02-15T08:33:54;41.28;;;20.65;;
68188;SDS011;66299;47.514;19.218;2024-02-15T08:36:23;34.88;;;19.77;;
68188;SDS011;66299;47.514;19.218;2024-02-15T08:38:52;34.30;;;20.20;;
68188;SDS011;66299;47.514;19.218;2024-02-15T08:41:21;36.10;;;20.35;;
68188;SDS011;66299;47.514;19.218;2024-02-15T08:43:54;37.20;;;20.05;;
68188;SDS011;66299;47.514;19.218;2024-02-15T08:46:27;38.17;;;20.17;;
68188;SDS011;66299;47.514;19.218;2024-02-15T08:48:57;38.60;;;20.88;;
68188;SDS011;66299;47.514;19.218;2024-02-15T08:51:28;38.67;;;21.50;;
68188;SDS011;66299;47.514;19.218;2024-02-15T08:53:57;42.45;;;21.63;;
68188;SDS011;66299;47.514;19.218;2024-02-15T08:56:27;40.17;;;22.45;;
68188;SDS011;66299;47.514;19.218;2024-02-15T08:58:56;39.13;;;23.02;;
68188;SDS011;66299;47.514;19.218;2024-02-15T09:01:32;41.92;;;23.85;;
68188;SDS011;66299;47.514;19.218;2024-02-15T09:04:01;41.80;;;24.35;;
68188;SDS011;66299;47.514;19.218;2024-02-15T09:06:30;39.60;;;22.27;;
68188;SDS011;66299;47.514;19.218;2024-02-15T09:08:59;38.65;;;22.02;;
68188;SDS011;66299;47.514;19.218;2024-02-15T09:11:28;36.22;;;22.83;;
68188;SDS011;66299;47.514;19.218;2024-02-15T09:13:57;38.28;;;21.42;;
68188;SDS011;66299;47.514;19.218;2024-02-15T09:19:00;35.53;;;20.92;;
68188;SDS011;66299;47.514;19.218;2024-02-15T09:21:29;41.83;;;21.98;;
68188;SDS011;66299;47.514;19.218;2024-02-15T09:23:57;38.75;;;21.42;;
68188;SDS011;66299;47.514;19.218;2024-02-15T09:26:27;35.63;;;22.73;;
68188;SDS011;66299;47.514;19.218;2024-02-15T09:28:58;38.47;;;22.77;;
68188;SDS011;66299;47.514;19.218;2024-02-15T09:31:30;38.95;;;23.08;;
68188;SDS011;66299;47.514;19.218;2024-02-15T09:34:03;38.30;;;23.25;;
68188;SDS011;66299;47.514;19.218;2024-02-15T09:36:34;38.10;;;22.20;;
68188;SDS011;66299;47.514;19.218;2024-02-15T09:39:05;40.38;;;23.02;;
68188;SDS011;66299;47.514;19.218;2024-02-15T09:41:42;44.45;;;23.67;;
68188;SDS011;66299;47.514;19.218;2024-02-15T09:44:11;43.25;;;24.60;;
68188;SDS011;66299;47.514;19.218;2024-02-15T09:46:42;40.15;;;24.08;;
68188;SDS011;66299;47.514;19.218;2024-02-15T09:49:14;42.85;;;25.33;;
68188;SDS011;66299;47.514;19.218;2024-02-15T09:51:43;49.20;;;27.10;;
68188;SDS011;66299;47.514;19.218;2024-02-15T09:54:12;46.85;;;25.73;;
68188;SDS011;66299;47.514;19.218;2024-02-15T09:56:50;41.88;;;25.92;;
68188;SDS011;66299;47.514;19.218;2024-02-15T09:59:21;46.60;;;26.17;;
68188;SDS011;66299;47.514;19.218;2024-02-15T10:01:53;40.28;;;23.80;;
68188;SDS011;66299;47.514;19.218;2024-02-15T10:04:28;42.08;;;23.58;;
68188;SDS011;66299;47.514;19.218;2024-02-15T10:06:58;38.90;;;21.83;;
68188;SDS011;66299;47.514;19.218;2024-02-15T10:09:28;36.85;;;22.70;;
68188;SDS011;66299;47.514;19.218;2024-02-15T10:11:59;42.00;;;23.85;;
68188;SDS011;66299;47.514;19.218;2024-02-15T10:14:30;39.42;;;22.95;;
68188;SDS011;66299;47.514;19.218;2024-02-15T10:17:05;42.67;;;24.52;;
68188;SDS011;66299;47.514;19.218;2024-02-15T10:19:39;43.20;;;23.20;;
68188;SDS011;66299;47.514;19.218;2024-02-15T10:22:11;38.95;;;22.92;;
68188;SDS011;66299;47.514;19.218;2024-02-15T10:24:42;42.78;;;22.80;;
68188;SDS011;66299;47.514;19.218;2024-02-15T10:27:11;42.38;;;22.50;;
68188;SDS011;66299;47.514;19.218;2024-02-15T10:29:39;40.28;;;22.90;;
68188;SDS011;66299;47.514;19.218;2024-02-15T10:32:08;36.45;;;21.90;;
68188;SDS011;66299;47.514;19.218;2024-02-15T10:34:44;38.47;;;22.08;;
68188;SDS011;66299;47.514;19.218;2024-02-15T10:37:13;37.97;;;22.08;;
68188;SDS011;66299;47.514;19.218;2024-02-15T10:39:44;38.97;;;21.90;;
68188;SDS011;66299;47.514;19.218;2024-02-15T10:42:14;42.70;;;21.88;;
68188;SDS011;66299;47.514;19.218;2024-02-15T10:44:46;35.58;;;21.30;;
68188;SDS011;66299;47.514;19.218;2024-02-15T10:47:17;39.97;;;21.70;;
68188;SDS011;66299;47.514;19.218;2024-02-15T10:49:48;37.58;;;21.50;;
68188;SDS011;66299;47.514;19.218;2024-02-15T10:52:18;36.85;;;20.88;;
68188;SDS011;66299;47.514;19.218;2024-02-15T10:54:53;36.60;;;21.05;;
68188;SDS011;66299;47.514;19.218;2024-02-15T10:57:31;36.67;;;20.38;;
68188;SDS011;66299;47.514;19.218;2024-02-15T11:00:00;35.85;;;20.52;;
68188;SDS011;66299;47.514;19.218;2024-02-15T11:02:37;37.63;;;19.05;;
68188;SDS011;66299;47.514;19.218;2024-02-15T11:05:10;30.65;;;18.83;;
68188;SDS011;66299;47.514;19.218;2024-02-15T11:07:48;33.80;;;19.23;;
68188;SDS011;66299;47.514;19.218;2024-02-15T11:10:18;35.60;;;19.50;;
68188;SDS011;66299;47.514;19.218;2024-02-15T11:12:50;32.15;;;19.10;;
68188;SDS011;66299;47.514;19.218;2024-02-15T11:18:08;32.67;;;19.15;;
68188;SDS011;66299;47.514;19.218;2024-02-15T11:20:47;36.92;;;19.40;;
68188;SDS011;66299;47.514;19.218;2024-02-15T11:23:27;35.08;;;18.80;;
68188;SDS011;66299;47.514;19.218;2024-02-15T11:26:03;33.53;;;18.63;;
68188;SDS011;66299;47.514;19.218;2024-02-15T11:28:42;30.77;;;18.05;;
68188;SDS011;66299;47.514;19.218;2024-02-15T11:34:42;36.38;;;19.35;;
68188;SDS011;66299;47.514;19.218;2024-02-15T11:40:22;29.25;;;17.90;;
68188;SDS011;66299;47.514;19.218;2024-02-15T11:42:54;32.65;;;18.13;;
68188;SDS011;66299;47.514;19.218;2024-02-15T11:45:24;32.00;;;18.35;;
68188;SDS011;66299;47.514;19.218;2024-02-15T11:47:54;30.02;;;17.33;;
68188;SDS011;66299;47.514;19.218;2024-02-15T11:50:23;35.63;;;18.52;;
68188;SDS011;66299;47.514;19.218;2024-02-15T11:53:01;33.08;;;18.48;;
68188;SDS011;66299;47.514;19.218;2024-02-15T11:55:38;34.95;;;17.90;;
68188;SDS011;66299;47.514;19.218;2024-02-15T11:58:09;35.13;;;18.50;;
68188;SDS011;66299;47.514;19.218;2024-02-15T12:00:48;32.97;;;17.55;;
68188;SDS011;66299;47.514;19.218;2024-02-15T12:03:34;32.08;;;16.83;;
68188;SDS011;66299;47.514;19.218;2024-02-15T12:06:32;25.83;;;15.98;;
68188;SDS011;66299;47.514;19.218;2024-02-15T12:09:20;26.40;;;15.57;;
68188;SDS011;66299;47.514;19.218;2024-02-15T12:12:06;28.15;;;15.50;;
68188;SDS011;66299;47.514;19.218;2024-02-15T12:14:58;33.30;;;15.73;;
68188;SDS011;66299;47.514;19.218;2024-02-15T12:17:44;30.40;;;15.38;;
68188;SDS011;66299;47.514;19.218;2024-02-15T12:20:30;27.02;;;15.70;;
68188;SDS011;66299;47.514;19.218;2024-02-15T12:22:58;26.55;;;14.50;;
68188;SDS011;66299;47.514;19.218;2024-02-15T12:25:30;30.15;;;14.70;;
68188;SDS011;66299;47.514;19.218;2024-02-15T12:30:32;27.73;;;14.18;;
68188;SDS011;66299;47.514;19.218;2024-02-15T12:33:10;27.52;;;14.13;;
68188;SDS011;66299;47.514;19.218;2024-02-15T12:35:46;26.77;;;13.93;;
68188;SDS011;66299;47.514;19.218;2024-02-15T12:38:17;27.80;;;13.30;;
68188;SDS011;66299;47.514;19.218;2024-02-15T12:40:47;23.60;;;12.93;;
68188;SDS011;66299;47.514;19.218;2024-02-15T12:43:16;25.73;;;13.38;;
68188;SDS011;66299;47.514;19.218;2024-02-15T12:45:45;23.60;;;13.15;;
68188;SDS011;66299;47.514;19.218;2024-02-15T12:48:14;28.02;;;14.00;;
68188;SDS011;66299;47.514;19.218;2024-02-15T12:50:45;23.90;;;13.63;;
68188;SDS011;66299;47.514;19.218;2024-02-15T12:53:20;30.55;;;14.75;;
68188;SDS011;66299;47.514;19.218;2024-02-15T12:55:54;26.98;;;14.73;;
68188;SDS011;66299;47.514;19.218;2024-02-15T12:58:24;27.45;;;15.70;;
68188;SDS011;66299;47.514;19.218;2024-02-15T13:00:54;33.45;;;17.52;;
68188;SDS011;66299;47.514;19.218;2024-02-15T13:03:25;29.35;;;17.42;;
68188;SDS011;66299;47.514;19.218;2024-02-15T13:05:54;33.55;;;18.00;;
68188;SDS011;66299;47.514;19.218;2024-02-15T13:08:24;29.05;;;17.73;;
68188;SDS011;66299;47.514;19.218;2024-02-15T13:10:54;33.60;;;19.45;;
68188;SDS011;66299;47.514;19.218;2024-02-15T13:13:24;34.95;;;18.75;;
68188;SDS011;66299;47.514;19.218;2024-02-15T13:15:54;31.08;;;17.80;;
68188;SDS011;66299;47.514;19.218;2024-02-15T13:18:24;30.92;;;17.60;;
68188;SDS011;66299;47.514;19.218;2024-02-15T13:20:57;30.92;;;18.02;;
68188;SDS011;66299;47.514;19.218;2024-02-15T13:23:31;30.52;;;17.38;;
68188;SDS011;66299;47.514;19.218;2024-02-15T13:26:05;29.92;;;17.35;;
68188;SDS011;66299;47.514;19.218;2024-02-15T13:28:36;29.48;;;16.58;;
68188;SDS011;66299;47.514;19.218;2024-02-15T13:31:07;31.07;;;17.33;;
68188;SDS011;66299;47.514;19.218;2024-02-15T13:33:35;30.92;;;17.70;;
68188;SDS011;66299;47.514;19.218;2024-02-15T13:36:06;27.88;;;16.48;;
68188;SDS011;66299;47.514;19.218;2024-02-15T13:38:39;29.42;;;17.50;;
68188;SDS011;66299;47.514;19.218;2024-02-15T13:41:10;29.65;;;17.40;;
68188;SDS011;66299;47.514;19.218;2024-02-15T13:43:40;30.02;;;17.38;;
68188;SDS011;66299;47.514;19.218;2024-02-15T13:46:09;27.70;;;16.42;;
68188;SDS011;66299;47.514;19.218;2024-02-15T13:48:38;33.50;;;18.92;;
68188;SDS011;66299;47.514;19.218;2024-02-15T13:51:09;32.03;;;18.45;;
68188;SDS011;66299;47.514;19.218;2024-02-15T13:53:38;30.80;;;18.45;;
68188;SDS011;66299;47.514;19.218;2024-02-15T13:56:11;32.65;;;18.00;;
68188;SDS011;66299;47.514;19.218;2024-02-15T13:58:40;35.28;;;18.90;;
68188;SDS011;66299;47.514;19.218;2024-02-15T14:01:10;31.55;;;19.42;;
68188;SDS011;66299;47.514;19.218;2024-02-15T14:03:42;35.58;;;19.48;;
68188;SDS011;66299;47.514;19.218;2024-02-15T14:06:14;37.90;;;20.67;;
68188;SDS011;66299;47.514;19.218;2024-02-15T14:08:45;38.97;;;20.08;;
68188;SDS011;66299;47.514;19.218;2024-02-15T14:11:17;35.85;;;20.23;;
68188;SDS011;66299;47.514;19.218;2024-02-15T14:13:47;33.83;;;19.58;;
68188;SDS011;66299;47.514;19.218;2024-02-15T14:16:27;34.05;;;19.48;;
68188;SDS011;66299;47.514;19.218;2024-02-15T14:19:01;31.65;;;18.98;;
68188;SDS011;66299;47.514;19.218;2024-02-15T14:21:30;35.05;;;19.77;;
68188;SDS011;66299;47.514;19.218;2024-02-15T14:24:00;36.38;;;20.15;;
68188;SDS011;66299;47.514;19.218;2024-02-15T14:26:32;34.03;;;20.05;;
68188;SDS011;66299;47.514;19.218;2024-02-15T14:29:00;33.22;;;20.42;;
68188;SDS011;66299;47.514;19.218;2024-02-15T14:31:30;33.05;;;20.23;;
68188;SDS011;66299;47.514;19.218;2024-02-15T14:34:15;35.80;;;20.80;;
68188;SDS011;66299;47.514;19.218;2024-02-15T14:36:47;35.97;;;22.08;;
68188;SDS011;66299;47.514;19.218;2024-02-15T14:39:16;35.13;;;21.27;;
68188;SDS011;66299;47.514;19.218;2024-02-15T14:41:48;35.78;;;21.77;;
68188;SDS011;66299;47.514;19.218;2024-02-15T14:44:16;35.20;;;20.88;;
68188;SDS011;66299;47.514;19.218;2024-02-15T14:46:45;39.33;;;22.83;;
68188;SDS011;66299;47.514;19.218;2024-02-15T14:49:14;36.67;;;21.50;;
68188;SDS011;66299;47.514;19.218;2024-02-15T14:51:43;36.22;;;21.10;;
68188;SDS011;66299;47.514;19.218;2024-02-15T14:54:12;38.05;;;20.20;;
68188;SDS011;66299;47.514;19.218;2024-02-15T14:56:49;38.33;;;22.23;;
68188;SDS011;66299;47.514;19.218;2024-02-15T14:59:18;36.97;;;22.23;;
68188;SDS011;66299;47.514;19.218;2024-02-15T15:01:46;38.40;;;21.92;;